createdAt,value
2017-05-28T00:00:34.409Z,0
2017-05-28T00:01:46.950Z,0
2017-05-28T00:02:58.874Z,0
2017-05-28T00:04:10.816Z,0
2017-05-28T00:05:21.799Z,0
2017-05-28T00:06:34.044Z,0
2017-05-28T00:07:46.588Z,0
2017-05-28T00:08:59.113Z,0
2017-05-28T00:10:11.630Z,0
2017-05-28T00:11:23.876Z,0
2017-05-28T00:12:36.414Z,0
2017-05-28T00:13:48.649Z,0
2017-05-28T00:15:01.192Z,0
2017-05-28T00:16:12.839Z,0
2017-05-28T00:17:25.382Z,0
2017-05-28T00:18:37.879Z,0
2017-05-28T00:19:50.422Z,0
2017-05-28T00:21:02.964Z,0
2017-05-28T00:22:14.895Z,0
2017-05-28T00:23:27.410Z,0
2017-05-28T00:24:39.630Z,0
2017-05-28T00:25:51.948Z,0
2017-05-28T00:27:04.477Z,0
2017-05-28T00:28:16.722Z,0
2017-05-28T00:29:28.968Z,0
2017-05-28T00:30:41.220Z,0
2017-05-28T00:31:53.431Z,0
2017-05-28T00:33:05.956Z,0
2017-05-28T00:34:18.198Z,0
2017-05-28T00:35:30.441Z,0
2017-05-28T00:36:42.689Z,0
2017-05-28T00:37:55.184Z,0
2017-05-28T00:39:07.402Z,0
2017-05-28T00:40:19.328Z,0
2017-05-28T00:41:31.880Z,0
2017-05-28T00:42:44.420Z,0
2017-05-28T00:43:56.665Z,0
2017-05-28T00:45:08.915Z,0
2017-05-28T00:46:21.162Z,0
2017-05-28T00:47:33.408Z,0
2017-05-28T00:48:45.953Z,0
2017-05-28T00:49:58.496Z,0
2017-05-28T00:51:10.444Z,0
2017-05-28T00:52:22.991Z,0
2017-05-28T00:53:35.537Z,0
2017-05-28T00:54:48.075Z,0
2017-05-28T00:56:00.579Z,0
2017-05-28T00:57:12.822Z,0
2017-05-28T00:58:25.047Z,0
2017-05-28T00:59:37.594Z,0
2017-05-28T01:00:50.134Z,0
2017-05-28T01:02:02.682Z,0
2017-05-28T01:03:14.899Z,0
2017-05-28T01:04:26.846Z,0
2017-05-28T01:05:39.067Z,0
2017-05-28T01:06:51.309Z,0
2017-05-28T01:08:03.536Z,0
2017-05-28T01:09:15.479Z,0
2017-05-28T01:10:28.001Z,0
2017-05-28T01:11:40.542Z,0
2017-05-28T01:12:52.772Z,0
2017-05-28T01:14:05.017Z,0
2017-05-28T01:15:17.255Z,0
2017-05-28T01:16:28.561Z,0
2017-05-28T01:17:40.805Z,0
2017-05-28T01:18:53.040Z,0
2017-05-28T01:20:05.618Z,0
2017-05-28T01:21:18.370Z,0
2017-05-28T01:22:30.913Z,0
2017-05-28T01:23:43.472Z,0
2017-05-28T01:24:55.705Z,0
2017-05-28T01:26:08.268Z,0
2017-05-28T01:27:20.790Z,0
2017-05-28T01:28:33.039Z,0
2017-05-28T01:29:45.277Z,0
2017-05-28T01:30:57.533Z,0
2017-05-28T01:32:09.752Z,0
2017-05-28T01:33:21.976Z,0
2017-05-28T01:34:34.223Z,0
2017-05-28T01:35:46.175Z,0
2017-05-28T01:36:58.729Z,0
2017-05-28T01:38:11.259Z,0
2017-05-28T01:39:23.478Z,0
2017-05-28T01:40:35.698Z,0
2017-05-28T01:41:48.295Z,0
2017-05-28T01:43:00.818Z,0
2017-05-28T01:44:13.339Z,0
2017-05-28T01:45:25.864Z,0
2017-05-28T01:46:38.406Z,0
2017-05-28T01:47:50.627Z,0
2017-05-28T01:49:03.147Z,0
2017-05-28T01:50:14.769Z,0
2017-05-28T01:51:27.312Z,0
2017-05-28T01:52:39.240Z,0
2017-05-28T01:53:51.184Z,0
2017-05-28T01:55:03.703Z,0
2017-05-28T01:56:15.638Z,0
2017-05-28T01:57:28.184Z,0
2017-05-28T01:58:40.715Z,0
2017-05-28T01:59:53.262Z,0
2017-05-28T02:01:05.795Z,0
2017-05-28T02:02:17.453Z,0
2017-05-28T02:03:29.996Z,0
2017-05-28T02:04:42.787Z,0
2017-05-28T02:05:55.317Z,0
2017-05-28T02:07:07.580Z,0
2017-05-28T02:08:20.105Z,4
2017-05-28T02:09:32.321Z,4
2017-05-28T02:10:44.867Z,4
2017-05-28T02:11:57.395Z,0
2017-05-28T02:13:09.338Z,4
2017-05-28T02:14:21.561Z,4
2017-05-28T02:15:33.209Z,8
2017-05-28T02:16:45.755Z,4
2017-05-28T02:17:58.276Z,8
2017-05-28T02:19:10.822Z,8
2017-05-28T02:20:22.760Z,8
2017-05-28T02:21:35.314Z,12
2017-05-28T02:22:47.873Z,12
2017-05-28T02:24:00.405Z,12
2017-05-28T02:25:12.648Z,16
2017-05-28T02:26:25.464Z,16
2017-05-28T02:27:38.036Z,20
2017-05-28T02:28:50.293Z,24
2017-05-28T02:30:02.860Z,28
2017-05-28T02:31:14.506Z,32
2017-05-28T02:32:27.051Z,40
2017-05-28T02:33:39.298Z,44
2017-05-28T02:34:51.518Z,52
2017-05-28T02:36:04.061Z,60
2017-05-28T02:37:16.609Z,68
2017-05-28T02:38:28.878Z,76
2017-05-28T02:39:41.401Z,88
2017-05-28T02:40:53.350Z,96
2017-05-28T02:42:05.911Z,108
2017-05-28T02:43:18.431Z,124
2017-05-28T02:44:30.660Z,136
2017-05-28T02:45:42.595Z,156
2017-05-28T02:46:54.849Z,168
2017-05-28T02:48:07.390Z,184
2017-05-28T02:49:19.359Z,204
2017-05-28T02:50:31.913Z,228
2017-05-28T02:51:44.160Z,248
2017-05-28T02:52:56.403Z,276
2017-05-28T02:54:08.625Z,300
2017-05-28T02:55:21.149Z,328
2017-05-28T02:56:33.066Z,352
2017-05-28T02:57:45.317Z,380
2017-05-28T02:58:58.133Z,412
2017-05-28T03:00:10.359Z,440
2017-05-28T03:01:22.897Z,476
2017-05-28T03:02:35.421Z,508
2017-05-28T03:03:47.964Z,544
2017-05-28T03:04:59.913Z,580
2017-05-28T03:06:12.438Z,616
2017-05-28T03:07:24.984Z,656
2017-05-28T03:08:37.229Z,696
2017-05-28T03:09:49.764Z,732
2017-05-28T03:11:02.292Z,772
2017-05-28T03:12:14.509Z,812
2017-05-28T03:13:27.102Z,856
2017-05-28T03:14:39.630Z,892
2017-05-28T03:15:52.208Z,940
2017-05-28T03:17:04.721Z,976
2017-05-28T03:18:17.243Z,1020
2017-05-28T03:19:29.741Z,1064
2017-05-28T03:20:42.291Z,1104
2017-05-28T03:21:54.835Z,1148
2017-05-28T03:23:07.380Z,1184
2017-05-28T03:24:19.898Z,1224
2017-05-28T03:25:32.444Z,1268
2017-05-28T03:26:44.997Z,1308
2017-05-28T03:27:57.539Z,1352
2017-05-28T03:29:09.785Z,1392
2017-05-28T03:30:22.332Z,1432
2017-05-28T03:31:34.326Z,1476
2017-05-28T03:32:46.868Z,1516
2017-05-28T03:33:59.064Z,1552
2017-05-28T03:35:10.991Z,1588
2017-05-28T03:36:23.230Z,1632
2017-05-28T03:37:35.727Z,1668
2017-05-28T03:38:47.956Z,1708
2017-05-28T03:40:00.497Z,1744
2017-05-28T03:41:12.445Z,1784
2017-05-28T03:42:24.639Z,1820
2017-05-28T03:43:36.882Z,1860
2017-05-28T03:44:49.145Z,1896
2017-05-28T03:46:01.374Z,1932
2017-05-28T03:47:13.597Z,1972
2017-05-28T03:48:25.819Z,2008
2017-05-28T03:49:38.041Z,2048
2017-05-28T03:50:49.961Z,2080
2017-05-28T03:52:02.204Z,2124
2017-05-28T03:53:14.755Z,2160
2017-05-28T03:54:27.294Z,2196
2017-05-28T03:55:39.816Z,2232
2017-05-28T03:56:52.354Z,2264
2017-05-28T03:58:04.888Z,2304
2017-05-28T03:59:17.104Z,2332
2017-05-28T04:00:29.617Z,2364
2017-05-28T04:01:41.525Z,2392
2017-05-28T04:02:54.066Z,2424
2017-05-28T04:04:06.561Z,2448
2017-05-28T04:05:18.788Z,2472
2017-05-28T04:06:31.346Z,2496
2017-05-28T04:07:43.602Z,2524
2017-05-28T04:08:56.151Z,2552
2017-05-28T04:10:08.392Z,2576
2017-05-28T04:11:20.306Z,2608
2017-05-28T04:12:32.860Z,2636
2017-05-28T04:13:45.381Z,2672
2017-05-28T04:14:57.596Z,2700
2017-05-28T04:16:09.828Z,2728
2017-05-28T04:17:21.445Z,2752
2017-05-28T04:18:34.031Z,2780
2017-05-28T04:19:46.589Z,2804
2017-05-28T04:20:58.832Z,2836
2017-05-28T04:22:11.354Z,2860
2017-05-28T04:23:23.877Z,2892
2017-05-28T04:24:36.421Z,2920
2017-05-28T04:25:48.639Z,2956
2017-05-28T04:27:01.163Z,2984
2017-05-28T04:28:13.124Z,3012
2017-05-28T04:29:25.652Z,3040
2017-05-28T04:30:38.203Z,3060
2017-05-28T04:31:50.749Z,3084
2017-05-28T04:33:02.989Z,3112
2017-05-28T04:34:15.209Z,3140
2017-05-28T04:35:27.459Z,3164
2017-05-28T04:36:40.323Z,3188
2017-05-28T04:37:52.877Z,3212
2017-05-28T04:39:05.087Z,3240
2017-05-28T04:40:16.722Z,3268
2017-05-28T04:41:29.315Z,3292
2017-05-28T04:42:41.556Z,3316
2017-05-28T04:43:54.087Z,3344
2017-05-28T04:45:06.318Z,3368
2017-05-28T04:46:18.547Z,3392
2017-05-28T04:47:31.390Z,3424
2017-05-28T04:48:43.614Z,3448
2017-05-28T04:49:55.560Z,3476
2017-05-28T04:51:08.123Z,3504
2017-05-28T04:52:19.752Z,3536
2017-05-28T04:53:31.400Z,3556
2017-05-28T04:54:43.941Z,3580
2017-05-28T04:55:56.487Z,3600
2017-05-28T04:57:08.709Z,3632
2017-05-28T04:58:21.478Z,3656
2017-05-28T04:59:33.375Z,3684
2017-05-28T05:00:45.895Z,3720
2017-05-28T05:01:58.470Z,3744
2017-05-28T05:03:10.716Z,3776
2017-05-28T05:04:23.258Z,3796
2017-05-28T05:05:35.482Z,3832
2017-05-28T05:06:47.104Z,3832
2017-05-28T05:07:58.750Z,3856
2017-05-28T05:09:11.298Z,3884
2017-05-28T05:10:23.607Z,3904
2017-05-28T05:11:35.238Z,4388
2017-05-28T05:12:47.202Z,4700
2017-05-28T05:13:59.772Z,4608
2017-05-28T05:15:12.022Z,4836
2017-05-28T05:16:24.247Z,6852
2017-05-28T05:17:36.788Z,8272
2017-05-28T05:18:49.330Z,7624
2017-05-28T05:20:02.105Z,6488
2017-05-28T05:21:14.326Z,8928
2017-05-28T05:22:26.848Z,19264
2017-05-28T05:23:39.399Z,22464
2017-05-28T05:24:51.935Z,36256
2017-05-28T05:26:03.881Z,31296
2017-05-28T05:27:16.137Z,15668
2017-05-28T05:28:28.695Z,25216
2017-05-28T05:29:40.926Z,22144
2017-05-28T05:30:53.211Z,12104
2017-05-28T05:32:05.415Z,6268
2017-05-28T05:33:17.961Z,4408
2017-05-28T05:34:30.486Z,4344
2017-05-28T05:35:43.009Z,4336
2017-05-28T05:36:55.526Z,5076
2017-05-28T05:38:07.761Z,6836
2017-05-28T05:39:20.294Z,9324
2017-05-28T05:40:32.237Z,9300
2017-05-28T05:41:44.732Z,10168
2017-05-28T05:42:57.248Z,6764
2017-05-28T05:44:09.181Z,7588
2017-05-28T05:45:21.422Z,9516
2017-05-28T05:46:33.733Z,6568
2017-05-28T05:47:46.289Z,5492
2017-05-28T05:48:58.799Z,5580
2017-05-28T05:50:10.755Z,7284
2017-05-28T05:51:22.699Z,6268
2017-05-28T05:52:35.245Z,5352
2017-05-28T05:53:47.495Z,4904
2017-05-28T05:55:00.043Z,5680
2017-05-28T05:56:12.575Z,6836
2017-05-28T05:57:24.229Z,5704
2017-05-28T05:58:36.448Z,5612
2017-05-28T05:59:48.691Z,6404
2017-05-28T06:01:00.937Z,9412
2017-05-28T06:02:12.878Z,10776
2017-05-28T06:03:24.786Z,16480
2017-05-28T06:04:37.029Z,15848
2017-05-28T06:05:49.253Z,11508
2017-05-28T06:07:01.503Z,9892
2017-05-28T06:08:13.753Z,8212
2017-05-28T06:09:26.263Z,12444
2017-05-28T06:10:38.501Z,10892
2017-05-28T06:11:50.734Z,21408
2017-05-28T06:13:02.982Z,42496
2017-05-28T06:14:15.221Z,21600
2017-05-28T06:15:27.169Z,49984
2017-05-28T06:16:39.692Z,46112
2017-05-28T06:17:51.912Z,20416
2017-05-28T06:19:03.860Z,20320
2017-05-28T06:20:16.405Z,19968
2017-05-28T06:21:28.056Z,35680
2017-05-28T06:22:40.320Z,29856
2017-05-28T06:23:52.867Z,16372
2017-05-28T06:25:05.111Z,20576
2017-05-28T06:26:17.355Z,24960
2017-05-28T06:27:29.305Z,47104
2017-05-28T06:28:41.848Z,24224
2017-05-28T06:29:54.389Z,35200
2017-05-28T06:31:06.319Z,30592
2017-05-28T06:32:18.260Z,18624
2017-05-28T06:33:30.801Z,52320
2017-05-28T06:34:42.728Z,56128
2017-05-28T06:35:55.267Z,47904
2017-05-28T06:37:07.498Z,46592
2017-05-28T06:38:20.040Z,54784
2017-05-28T06:39:32.587Z,42464
2017-05-28T06:40:44.532Z,34720
2017-05-28T06:41:57.056Z,37184
2017-05-28T06:43:09.599Z,35712
2017-05-28T06:44:21.870Z,37600
2017-05-28T06:45:34.409Z,38208
2017-05-28T06:46:46.341Z,37824
2017-05-28T06:47:58.583Z,44896
2017-05-28T06:49:11.122Z,45504
2017-05-28T06:50:23.080Z,46624
2017-05-28T06:51:35.325Z,54464
2017-05-28T06:52:47.608Z,61024
2017-05-28T06:54:00.137Z,63456
2017-05-28T06:55:11.787Z,61728
2017-05-28T06:56:24.347Z,65536
2017-05-28T06:57:37.150Z,60576
2017-05-28T06:58:49.675Z,60256
2017-05-28T07:00:02.236Z,62624
2017-05-28T07:01:13.883Z,62080
2017-05-28T07:02:26.115Z,60928
2017-05-28T07:03:38.654Z,64256
2017-05-28T07:04:50.879Z,62720
2017-05-28T07:06:03.425Z,62944
2017-05-28T07:07:15.970Z,59392
2017-05-28T07:08:28.518Z,60064
2017-05-28T07:09:41.088Z,62400
2017-05-28T07:10:53.330Z,65888
2017-05-28T07:12:05.875Z,63808
2017-05-28T07:13:17.847Z,67456
2017-05-28T07:14:30.096Z,68832
2017-05-28T07:15:42.663Z,67680
2017-05-28T07:16:55.187Z,68608
2017-05-28T07:18:07.759Z,67136
2017-05-28T07:19:20.032Z,70784
2017-05-28T07:20:32.297Z,68576
2017-05-28T07:21:44.847Z,68352
2017-05-28T07:22:57.413Z,69440
2017-05-28T07:24:09.660Z,70624
2017-05-28T07:25:21.906Z,68640
2017-05-28T07:26:34.448Z,64544
2017-05-28T07:27:46.124Z,62368
2017-05-28T07:28:58.711Z,61216
2017-05-28T07:30:10.961Z,63968
2017-05-28T07:31:23.211Z,66560
2017-05-28T07:32:35.758Z,68992
2017-05-28T07:33:47.731Z,66912
2017-05-28T07:35:00.294Z,67136
2017-05-28T07:36:12.619Z,70368
2017-05-28T07:37:25.170Z,70016
2017-05-28T07:38:37.739Z,70240
2017-05-28T07:39:50.327Z,71040
2017-05-28T07:41:02.880Z,68736
2017-05-28T07:42:15.431Z,68704
2017-05-28T07:43:28.025Z,71136
2017-05-28T07:44:40.290Z,72640
2017-05-28T07:45:51.917Z,68608
2017-05-28T07:47:03.860Z,71680
2017-05-28T07:48:16.432Z,76416
2017-05-28T07:49:29.003Z,74208
2017-05-28T07:50:41.595Z,72160
2017-05-28T07:51:53.820Z,74816
2017-05-28T07:53:06.391Z,79712
2017-05-28T07:54:18.341Z,79584
2017-05-28T07:55:30.959Z,78240
2017-05-28T07:56:43.529Z,79136
2017-05-28T07:57:55.495Z,82624
2017-05-28T07:59:08.020Z,83744
2017-05-28T08:00:19.716Z,86912
2017-05-28T08:01:32.014Z,85280
2017-05-28T08:02:44.548Z,80928
2017-05-28T08:03:57.095Z,81632
2017-05-28T08:05:09.349Z,82048
2017-05-28T08:06:21.318Z,81024
2017-05-28T08:07:33.591Z,78592
2017-05-28T08:08:46.156Z,79968
2017-05-28T08:09:58.729Z,81056
2017-05-28T08:11:10.975Z,81760
2017-05-28T08:12:23.311Z,83968
2017-05-28T08:13:35.868Z,87136
2017-05-28T08:14:48.118Z,82624
2017-05-28T08:16:00.704Z,79712
2017-05-28T08:17:12.365Z,82464
2017-05-28T08:18:24.330Z,84672
2017-05-28T08:19:36.901Z,85152
2017-05-28T08:20:49.185Z,86368
2017-05-28T08:22:01.743Z,87456
2017-05-28T08:23:13.716Z,89536
2017-05-28T08:24:26.290Z,90528
2017-05-28T08:25:38.843Z,88800
2017-05-28T08:26:51.397Z,91904
2017-05-28T08:28:03.961Z,89440
2017-05-28T08:29:16.531Z,88864
2017-05-28T08:30:28.840Z,88960
2017-05-28T08:31:41.406Z,87488
2017-05-28T08:32:53.960Z,84960
2017-05-28T08:34:06.548Z,83136
2017-05-28T08:35:19.065Z,90144
2017-05-28T08:36:31.319Z,88032
2017-05-28T08:37:43.928Z,88992
2017-05-28T08:38:56.474Z,90336
2017-05-28T08:40:09.073Z,88576
2017-05-28T08:41:21.629Z,88352
2017-05-28T08:42:34.201Z,86656
2017-05-28T08:43:46.168Z,89312
2017-05-28T08:44:58.415Z,93728
2017-05-28T08:46:10.975Z,92128
2017-05-28T08:47:23.254Z,89856
2017-05-28T08:48:35.826Z,91520
2017-05-28T08:49:47.795Z,85120
2017-05-28T08:51:00.384Z,85280
2017-05-28T08:52:12.066Z,89568
2017-05-28T08:53:24.650Z,90144
2017-05-28T08:54:36.907Z,89696
2017-05-28T08:55:48.903Z,86304
2017-05-28T08:57:01.449Z,88480
2017-05-28T08:58:14.041Z,89568
2017-05-28T08:59:26.591Z,61408
2017-05-28T09:00:39.162Z,39392
2017-05-28T09:01:51.707Z,62080
2017-05-28T09:03:03.980Z,78848
2017-05-28T09:04:16.570Z,73920
2017-05-28T09:05:29.137Z,92672
2017-05-28T09:06:41.680Z,92992
2017-05-28T09:07:53.959Z,89760
2017-05-28T09:09:05.900Z,81632
2017-05-28T09:10:18.192Z,78720
2017-05-28T09:11:30.745Z,85280
2017-05-28T09:12:42.992Z,81696
2017-05-28T09:13:55.569Z,85184
2017-05-28T09:15:07.826Z,84928
2017-05-28T09:16:20.408Z,84672
2017-05-28T09:17:32.375Z,82624
2017-05-28T09:18:45.226Z,84576
2017-05-28T09:19:57.497Z,86048
2017-05-28T09:21:10.085Z,85760
2017-05-28T09:22:22.338Z,87392
2017-05-28T09:23:34.608Z,86784
2017-05-28T09:24:47.194Z,85152
2017-05-28T09:25:59.147Z,79456
2017-05-28T09:27:11.373Z,81952
2017-05-28T09:28:23.044Z,77952
2017-05-28T09:29:35.610Z,77408
2017-05-28T09:30:47.863Z,78112
2017-05-28T09:31:59.819Z,61088
2017-05-28T09:33:12.450Z,74176
2017-05-28T09:34:24.389Z,79744
2017-05-28T09:35:36.940Z,77088
2017-05-28T09:36:49.214Z,77664
2017-05-28T09:38:01.482Z,72192
2017-05-28T09:39:13.755Z,61600
2017-05-28T09:40:26.280Z,56288
2017-05-28T09:41:38.850Z,40928
2017-05-28T09:42:51.422Z,41152
2017-05-28T09:44:03.687Z,71072
2017-05-28T09:45:16.235Z,77600
2017-05-28T09:46:28.506Z,76192
2017-05-28T09:47:41.077Z,72032
2017-05-28T09:48:53.362Z,69344
2017-05-28T09:50:05.616Z,75584
2017-05-28T09:51:18.190Z,78912
2017-05-28T09:52:30.762Z,78496
2017-05-28T09:53:43.031Z,77440
2017-05-28T09:54:55.606Z,80480
2017-05-28T09:56:08.187Z,79072
2017-05-28T09:57:20.748Z,75904
2017-05-28T09:58:32.713Z,79520
2017-05-28T09:59:45.282Z,82720
2017-05-28T10:00:57.550Z,83200
2017-05-28T10:02:10.054Z,83520
2017-05-28T10:03:22.602Z,85728
2017-05-28T10:04:35.168Z,85344
2017-05-28T10:05:47.730Z,84480
2017-05-28T10:07:00.013Z,87456
2017-05-28T10:08:12.587Z,86400
2017-05-28T10:09:25.155Z,85984
2017-05-28T10:10:37.716Z,85440
2017-05-28T10:11:50.288Z,87872
2017-05-28T10:13:02.555Z,84704
2017-05-28T10:14:14.814Z,85088
2017-05-28T10:15:26.479Z,85664
2017-05-28T10:16:38.743Z,85984
2017-05-28T10:17:50.996Z,82592
2017-05-28T10:19:03.266Z,82144
2017-05-28T10:20:15.232Z,83648
2017-05-28T10:21:27.505Z,84896
2017-05-28T10:22:40.059Z,83360
2017-05-28T10:23:52.655Z,82464
2017-05-28T10:25:04.950Z,83776
2017-05-28T10:26:16.920Z,86080
2017-05-28T10:27:28.890Z,87072
2017-05-28T10:28:41.414Z,88800
2017-05-28T10:29:53.459Z,87136
2017-05-28T10:31:06.036Z,51040
2017-05-28T10:32:18.023Z,73248
2017-05-28T10:33:30.586Z,67936
2017-05-28T10:34:43.166Z,71232
2017-05-28T10:35:55.728Z,59936
2017-05-28T10:37:08.001Z,52352
2017-05-28T10:38:19.981Z,48544
2017-05-28T10:39:32.248Z,62848
2017-05-28T10:40:44.794Z,66016
2017-05-28T10:41:57.372Z,61792
2017-05-28T10:43:09.980Z,81664
2017-05-28T10:44:22.257Z,86624
2017-05-28T10:45:34.794Z,87744
2017-05-28T10:46:47.061Z,85376
2017-05-28T10:47:59.316Z,87968
2017-05-28T10:49:11.595Z,87872
2017-05-28T10:50:23.566Z,86592
2017-05-28T10:51:36.135Z,85504
2017-05-28T10:52:48.721Z,82624
2017-05-28T10:54:00.976Z,84736
2017-05-28T10:55:13.238Z,86720
2017-05-28T10:56:25.540Z,84480
2017-05-28T10:57:37.492Z,80256
2017-05-28T10:58:50.062Z,76864
2017-05-28T11:00:02.662Z,77056
2017-05-28T11:01:14.948Z,71008
2017-05-28T11:02:27.224Z,67648
2017-05-28T11:03:39.516Z,59776
2017-05-28T11:04:52.062Z,59616
2017-05-28T11:06:04.629Z,55424
2017-05-28T11:07:16.284Z,61472
2017-05-28T11:08:28.855Z,69216
2017-05-28T11:09:41.424Z,67328
2017-05-28T11:10:53.722Z,67104
2017-05-28T11:12:05.992Z,62976
2017-05-28T11:13:18.261Z,51872
2017-05-28T11:14:30.208Z,63872
2017-05-28T11:15:42.821Z,60128
2017-05-28T11:16:54.481Z,62272
2017-05-28T11:18:06.998Z,61120
2017-05-28T11:19:18.672Z,50752
2017-05-28T11:20:30.955Z,49440
2017-05-28T11:21:43.509Z,61216
2017-05-28T11:22:55.479Z,59648
2017-05-28T11:24:07.715Z,62912
2017-05-28T11:25:20.293Z,56768
2017-05-28T11:26:32.244Z,40032
2017-05-28T11:27:44.814Z,41760
2017-05-28T11:28:57.084Z,37664
2017-05-28T11:30:09.355Z,28672
2017-05-28T11:31:21.924Z,31168
2017-05-28T11:32:34.175Z,79616
2017-05-28T11:33:46.772Z,75136
2017-05-28T11:34:59.360Z,72992
2017-05-28T11:36:11.913Z,77600
2017-05-28T11:37:23.894Z,74688
2017-05-28T11:38:36.449Z,77760
2017-05-28T11:39:48.997Z,73568
2017-05-28T11:41:00.985Z,71808
2017-05-28T11:42:13.614Z,68704
2017-05-28T11:43:25.909Z,65536
2017-05-28T11:44:38.170Z,65056
2017-05-28T11:45:50.427Z,73536
2017-05-28T11:47:02.995Z,74240
2017-05-28T11:48:14.971Z,59936
2017-05-28T11:49:26.957Z,65728
2017-05-28T11:50:39.537Z,70272
2017-05-28T11:51:52.103Z,69760
2017-05-28T11:53:04.678Z,73568
2017-05-28T11:54:16.649Z,75232
2017-05-28T11:55:28.919Z,73952
2017-05-28T11:56:41.491Z,73056
2017-05-28T11:57:54.064Z,76864
2017-05-28T11:59:06.308Z,73344
2017-05-28T12:00:18.867Z,66528
2017-05-28T12:01:30.522Z,53760
2017-05-28T12:02:42.194Z,47008
2017-05-28T12:03:54.769Z,56608
2017-05-28T12:05:07.036Z,55776
2017-05-28T12:06:19.308Z,58592
2017-05-28T12:07:31.600Z,52192
2017-05-28T12:08:43.896Z,41344
2017-05-28T12:09:56.141Z,51680
2017-05-28T12:11:08.759Z,55360
2017-05-28T12:12:21.028Z,50784
2017-05-28T12:13:33.283Z,60800
2017-05-28T12:14:45.550Z,51904
2017-05-28T12:15:57.824Z,59328
2017-05-28T12:17:10.096Z,58528
2017-05-28T12:18:21.768Z,53472
2017-05-28T12:19:34.351Z,46496
2017-05-28T12:20:46.910Z,38048
2017-05-28T12:21:59.527Z,35008
2017-05-28T12:23:12.377Z,35040
2017-05-28T12:24:24.646Z,33408
2017-05-28T12:25:37.217Z,40192
2017-05-28T12:26:49.189Z,43264
2017-05-28T12:28:01.759Z,44064
2017-05-28T12:29:14.347Z,42464
2017-05-28T12:30:26.643Z,43424
2017-05-28T12:31:39.237Z,54720
2017-05-28T12:32:51.818Z,66848
2017-05-28T12:34:04.106Z,70272
2017-05-28T12:35:16.677Z,80800
2017-05-28T12:36:28.932Z,83008
2017-05-28T12:37:41.527Z,80800
2017-05-28T12:38:53.747Z,78240
2017-05-28T12:40:06.323Z,76928
2017-05-28T12:41:18.616Z,75040
2017-05-28T12:42:30.861Z,75040
2017-05-28T12:43:43.449Z,74944
2017-05-28T12:44:56.266Z,68832
2017-05-28T12:46:08.826Z,48512
2017-05-28T12:47:21.090Z,29536
2017-05-28T12:48:32.761Z,35808
2017-05-28T12:49:45.339Z,63136
2017-05-28T12:50:57.660Z,64224
2017-05-28T12:52:09.924Z,66432
2017-05-28T12:53:22.500Z,64256
2017-05-28T12:54:35.118Z,63520
2017-05-28T12:55:47.679Z,56576
2017-05-28T12:57:00.224Z,57440
2017-05-28T12:58:12.756Z,67904
2017-05-28T12:59:24.720Z,63008
2017-05-28T13:00:37.298Z,62432
2017-05-28T13:01:49.636Z,62528
2017-05-28T13:03:02.192Z,65056
2017-05-28T13:04:14.476Z,69920
2017-05-28T13:05:26.729Z,72064
2017-05-28T13:06:39.301Z,71488
2017-05-28T13:07:51.849Z,64640
2017-05-28T13:09:04.392Z,72896
2017-05-28T13:10:16.667Z,73760
2017-05-28T13:11:28.933Z,75232
2017-05-28T13:12:41.198Z,77248
2017-05-28T13:13:53.753Z,32448
2017-05-28T13:15:05.724Z,55744
2017-05-28T13:16:17.999Z,51392
2017-05-28T13:17:30.563Z,43072
2017-05-28T13:18:43.106Z,70528
2017-05-28T13:19:55.381Z,70272
2017-05-28T13:21:07.658Z,68960
2017-05-28T13:22:20.226Z,68928
2017-05-28T13:23:32.495Z,69536
2017-05-28T13:24:45.064Z,69056
2017-05-28T13:25:57.606Z,69280
2017-05-28T13:27:09.848Z,68448
2017-05-28T13:28:22.418Z,67424
2017-05-28T13:29:35.014Z,61088
2017-05-28T13:30:47.568Z,65888
2017-05-28T13:32:00.114Z,65920
2017-05-28T13:33:12.386Z,65088
2017-05-28T13:34:24.360Z,60800
2017-05-28T13:35:36.930Z,58176
2017-05-28T13:36:49.493Z,52384
2017-05-28T13:38:01.755Z,45760
2017-05-28T13:39:14.595Z,60448
2017-05-28T13:40:26.541Z,49120
2017-05-28T13:41:39.113Z,52000
2017-05-28T13:42:51.651Z,44320
2017-05-28T13:44:03.899Z,46016
2017-05-28T13:45:16.464Z,36832
2017-05-28T13:46:28.415Z,54208
2017-05-28T13:47:40.690Z,58432
2017-05-28T13:48:53.256Z,61536
2017-05-28T13:50:05.548Z,60000
2017-05-28T13:51:17.820Z,59648
2017-05-28T13:52:30.395Z,61280
2017-05-28T13:53:42.643Z,60064
2017-05-28T13:54:55.185Z,58528
2017-05-28T13:56:07.153Z,56288
2017-05-28T13:57:19.383Z,57376
2017-05-28T13:58:31.956Z,52608
2017-05-28T13:59:44.222Z,55872
2017-05-28T14:00:57.041Z,56640
2017-05-28T14:02:08.990Z,56672
2017-05-28T14:03:21.332Z,53344
2017-05-28T14:04:33.584Z,54752
2017-05-28T14:05:46.154Z,54688
2017-05-28T14:06:58.121Z,53952
2017-05-28T14:08:10.665Z,51488
2017-05-28T14:09:22.913Z,43264
2017-05-28T14:10:35.461Z,51072
2017-05-28T14:11:48.032Z,47136
2017-05-28T14:12:59.982Z,41632
2017-05-28T14:14:12.227Z,28320
2017-05-28T14:15:24.217Z,19776
2017-05-28T14:16:36.813Z,23040
2017-05-28T14:17:49.384Z,32224
2017-05-28T14:19:01.957Z,22368
2017-05-28T14:20:14.226Z,22304
2017-05-28T14:21:26.475Z,21216
2017-05-28T14:22:38.763Z,20128
2017-05-28T14:23:51.033Z,22784
2017-05-28T14:25:03.304Z,27136
2017-05-28T14:26:15.854Z,31488
2017-05-28T14:27:27.826Z,33248
2017-05-28T14:28:39.793Z,35680
2017-05-28T14:29:52.361Z,33184
2017-05-28T14:31:04.918Z,27680
2017-05-28T14:32:16.860Z,23072
2017-05-28T14:33:29.408Z,32864
2017-05-28T14:34:41.982Z,33504
2017-05-28T14:35:54.551Z,34816
2017-05-28T14:37:06.814Z,35200
2017-05-28T14:38:19.069Z,34624
2017-05-28T14:39:31.614Z,39232
2017-05-28T14:40:43.577Z,18912
2017-05-28T14:41:56.130Z,15280
2017-05-28T14:43:08.701Z,14216
2017-05-28T14:44:21.264Z,13536
2017-05-28T14:45:33.819Z,14396
2017-05-28T14:46:45.788Z,16300
2017-05-28T14:47:58.334Z,18592
2017-05-28T14:49:10.602Z,19008
2017-05-28T14:50:22.848Z,18816
2017-05-28T14:51:35.119Z,17952
2017-05-28T14:52:47.387Z,18272
2017-05-28T14:53:59.935Z,18336
2017-05-28T14:55:11.862Z,16688
2017-05-28T14:56:23.807Z,14924
2017-05-28T14:57:36.343Z,13636
2017-05-28T14:58:48.919Z,11596
2017-05-28T15:00:00.569Z,10232
2017-05-28T15:01:12.815Z,10224
2017-05-28T15:02:24.779Z,10996
2017-05-28T15:03:36.729Z,9952
2017-05-28T15:04:49.279Z,9288
2017-05-28T15:06:01.844Z,9772
2017-05-28T15:07:14.068Z,10568
2017-05-28T15:08:26.040Z,11696
2017-05-28T15:09:37.985Z,11708
2017-05-28T15:10:50.559Z,10536
2017-05-28T15:12:03.125Z,8724
2017-05-28T15:13:14.750Z,7560
2017-05-28T15:14:26.396Z,7264
2017-05-28T15:15:38.980Z,7216
2017-05-28T15:16:51.212Z,6724
2017-05-28T15:18:03.162Z,5984
2017-05-28T15:19:14.833Z,5676
2017-05-28T15:20:27.399Z,5648
2017-05-28T15:21:39.642Z,5744
2017-05-28T15:22:51.892Z,5716
2017-05-28T15:24:04.506Z,5528
2017-05-28T15:25:17.035Z,5404
2017-05-28T15:26:29.579Z,5652
2017-05-28T15:27:42.153Z,6208
2017-05-28T15:28:54.725Z,6668
2017-05-28T15:30:06.989Z,6872
2017-05-28T15:31:19.239Z,6804
2017-05-28T15:32:31.506Z,6712
2017-05-28T15:33:43.755Z,7160
2017-05-28T15:34:56.328Z,7712
2017-05-28T15:36:08.598Z,7928
2017-05-28T15:37:20.841Z,8100
2017-05-28T15:38:32.485Z,8508
2017-05-28T15:39:44.712Z,9072
2017-05-28T15:40:57.274Z,9428
2017-05-28T15:42:09.223Z,9892
2017-05-28T15:43:21.787Z,10380
2017-05-28T15:44:33.761Z,11300
2017-05-28T15:45:46.290Z,12472
2017-05-28T15:46:58.857Z,13392
2017-05-28T15:48:11.407Z,13912
2017-05-28T15:49:23.396Z,13896
2017-05-28T15:50:35.947Z,13380
2017-05-28T15:51:48.491Z,12304
2017-05-28T15:53:00.457Z,11064
2017-05-28T15:54:12.415Z,10400
2017-05-28T15:55:24.673Z,11184
2017-05-28T15:56:37.199Z,13112
2017-05-28T15:57:49.748Z,15540
2017-05-28T15:59:02.316Z,18112
2017-05-28T16:00:14.861Z,19264